Pollockville, Canada
Current Conditions -  °F | °C
As of 6:00 AM on Tuesday 21 Oct 2014 (Local Time) from CYXH Reporting Station
Broken Clouds Broken Clouds  
Wind Chill: 37°   Ceiling: 14000
Heat Index: 41°   Visibility: 9mi
Dew Point: 36°   Wind: 6mph
Humidity: 81%   Direction: 180°S
Pressure: 29.63"   Gusts: NA
Location:  51.1°N, 111.59°W
Report Text: CYXH 211200Z AUTO 18005KT 9SM FEW120 BKN140 05/02 A2963 RMK SLP036
Loading
Personal Weather Stations






























Interactive Weather Map
Tropical Storm Tracking
New forecast layout! Learn more

10-Day Weather Forecast

Advertisements
Track Severe Weather on mobile